AirNav   Phillips 66 Aviation Fuel
 
 1060 users online  

39R Flyin' B Airport
Houston, Texas, USA

GOING TO HOUSTON?


FAA INFORMATION EFFECTIVE 08 NOVEMBER 2018

Location

FAA Identifier: 39R
Lat/Long: 29-32-15.4000N / 095-25-25.1000W
29-32.256667N / 095-25.418333W
29.5376111 / -95.4236389
(estimated)
Elevation: 73 ft. / 22 m (estimated)
Variation: 06E (1985)
From city: 15 miles S of HOUSTON, TX
Time zone: UTC -6 (UTC -5 during Daylight Saving Time)
Zip code: 77583

Airport Operations

Airport use: Open to the public
Control tower: no
ARTCC: HOUSTON CENTER
FSS: MONTGOMERY COUNTY FLIGHT SERVICE STATION
NOTAMs facility: CXO (NOTAM-D service available)
Attendance: UNATNDD
Wind indicator: yes
Segmented circle: no

Airport Communications

CTAF: 122.9
WX AWOS-3 at AXH (3 nm SW): 123.625 (281-431-6572)
WX ASOS at LVJ (10 nm E): 118.525 (281-992-1853)
WX ASOS at HOU (10 nm NE): PHONE 713-847-1462
WX ASOS at SGR (13 nm NW): 118.125 (281-242-7605)

Nearby radio navigation aids

VOR radial/distance  VOR name  Freq  Var
HUBr222/10.4HOBBY VOR/DME117.1005E
IAHr184/25.5HUMBLE VORTAC116.6005E
VUHr293/33.2SCHOLES VOR/DME113.0006E
MHFr262/35.3TRINITY VOR/DME113.6007E

 
NDB name  Hdg/Dist  Freq  Var  ID
NIXIN197/29.432605EBVP -... ...- .--.
GALVESTON281/37.020608EGLS --. .-.. ...

Airport Services

Runway Information

Runway 17/35

Dimensions: 2100 x 75 ft. / 640 x 23 m
Surface: turf, in fair condition
RY SFC HAS ROUGH AREAS & UNEVEN WITH TIRE RUTS.
RUNWAY 17  RUNWAY 35
Latitude: 29-32.430290N29-32.083907N
Longitude: 095-25.424195W095-25.411467W
Elevation: 68.0 ft.73.0 ft.
Traffic pattern: leftleft
Runway heading: 172 magnetic, 178 true352 magnetic, 358 true
Obstructions: 30 ft. pline, 20 ft. from runway5 ft. hill, 90 ft. right of centerline

Airport Ownership and Management from official FAA records

Ownership: Privately-owned
Owner: SMITH PARK 21
4610 CURRY RD
MANVEL, TX 77578
Phone 713-443-1850
ARPT ADDRESS 1422 CO RD 59, ROSHARON, TX.
Manager: DAVID PARKER
4610 CURRY RD
HOUSTON, TX 77578
Phone 713-443-1850

Additional Remarks

BAYOU AT SOUTH END OF RWY.
GND DROPS OFF SHARPLY AT END OF RY 17 20 FT FM THLD.
FOR CD CTC HOUSTON APCH AT 281-443-5844 TO CNL IFR CALL 281-443-5888.

Instrument Procedures

There are no published instrument procedures at 39R.

Some nearby airports with instrument procedures:

KAXH - Houston Southwest Airport (3 nm SW)
KLVJ - Pearland Regional Airport (10 nm E)
KHOU - William P Hobby Airport (10 nm NE)
KSGR - Sugar Land Regional Airport (13 nm NW)
KEFD - Ellington Airport (14 nm E)
 
Loc | Ops | Rwys | IFR | FBO | Links
Com | Nav | Svcs | Stats | Notes


 
Area around 39R (Flyin' B Airport)
 
Road maps at: MapQuest Bing Google
 
Aerial photo
No photo
 
Sectional chart

 
Airport distance calculator
Flying to Flyin' B Airport? Find the distance to fly.

From to 39R

Sunrise and sunset
Times for 12-Nov-2018
 Local
(UTC-6)
 Zulu
(UTC)
Morning civil twilight06:2012:20
Sunrise06:4512:45
Sunset17:2723:27
Evening civil twilight17:5223:52

Current date and time
Zulu (UTC)  12-Nov-2018 23:46:42
Local (UTC-6)  12-Nov-2018 17:46:42
 
METAR
KAXH 
3nm SW 
122335Z AUTO 36015G22KT 10SM -RA BKN016 OVC022 09/07 A3011 RMK AO2 P0001 T00850070
KLVJ 
9nm E 
122253Z AUTO 35013G21KT 10SM BKN015 OVC021 11/08 A3013 RMK AO2 PK WND 35026/2207 SLP203 T01060078
KHOU 
9nm NE 
122253Z 34021G27KT 10SM OVC018 10/06 A3012 RMK AO2 PK WND 34029/2214 SLP205 T01000061
KSGR 
13nm W 
122253Z 35012G23KT 10SM RA OVC015 10/07 A3012 RMK AO2 PK WND 35029/2210 RAB2157 SLP201 T01000072 PNO $
KEFD 
14nm E 
122250Z 31014G22KT 7SM OVC013 10/07 A3013
TAF
KHOU 
9nm NE 
122059Z 1221/1318 34017G25KT P6SM VCSH OVC017 TEMPO 1221/1301 4SM -RA BR FM130200 35022G30KT P6SM BKN015 OVC025 FM131300 34018G26KT P6SM OVC025
KSGR 
13nm W 
122103Z 1221/1318 35016G26KT P6SM VCSH OVC013 TEMPO 1221/1301 5SM -RA BR FM130200 35018G28KT P6SM BKN015 OVC025 FM131300 35017G26KT P6SM OVC025
KEFD 
14nm E 
112344Z 1123/1302 07009KT 9999 SCT008 BKN030 QNH3002INS TEMPO 1123/1201 6000 -TSRA BKN015 OVC025CB BECMG 1204/1205 05009KT 8000 -SHRA OVC005 QNH2990INS BECMG 1217/1218 36015G25KT 8000 -SHRA OVC005 QNH2998INS BECMG 1220/1221 36015G35KT 8000 -SHRA OVC007 QNH3002INS TX14/1222Z TN11/1209Z
NOTAMs
Click for the latest NOTAMs
NOTAMs are issued by the DoD/FAA and will open in a separate window not controlled by AirNav.

 

 
 

Would you like to see your business listed on this page?

 If your business provides an interesting product or service to pilots, flight crews, aircraft, or users of the Flyin' B Airport, you should consider listing it here.  To start the listing process, click on the button below
 
Add a business
 

Other Pages about Flyin' B Airport

Update a link
 
Copyright © AirNav, LLC. All rights reserved. Privacy Policy  Contact